Time;durP1;ratioP1;P1;durP2;ratioP2;P2;SDS_P1;SDS_P2;PMS_P1;PMS_P2;Temp;Humidity;BMP_temperature;BMP_pressure;BME280_temperature;BME280_humidity;BME280_pressure;Samples;Min_cycle;Max_cycle;Signal;HPM_P1;HPM_P2
2023/08/27 00:04:28;;;;;;;4.47;4.00;;;20.60;99.90;;;;;;10192695;29;20212;-90
2023/08/27 00:09:30;;;;;;;4.80;4.30;;;20.90;99.90;;;;;;10180165;29;20212;-90
2023/08/27 00:14:33;;;;;;;6.32;3.88;;;20.90;99.90;;;;;;10194111;29;20249;-89
2023/08/27 00:19:35;;;;;;;4.07;3.67;;;20.90;99.90;;;;;;10198218;29;20195;-89
2023/08/27 00:24:38;;;;;;;3.80;3.50;;;20.90;99.90;;;;;;10226360;29;20239;-89
2023/08/27 00:29:40;;;;;;;4.82;3.85;;;20.90;99.90;;;;;;10193737;29;20188;-90
2023/08/27 00:34:43;;;;;;;5.45;4.00;;;20.90;99.90;;;;;;10208616;29;20247;-90
2023/08/27 00:39:45;;;;;;;3.45;3.08;;;20.90;99.90;;;;;;10203692;29;20177;-89
2023/08/27 00:44:48;;;;;;;4.00;3.70;;;20.90;99.90;;;;;;10170630;29;20197;-90
2023/08/27 00:49:52;;;;;;;5.07;3.25;;;20.80;99.90;;;;;;10173183;29;20233;-90
2023/08/27 00:54:56;;;;;;;5.55;3.70;;;20.70;99.90;;;;;;10169260;29;20240;-89
2023/08/27 00:59:59;;;;;;;4.63;3.55;;;20.70;99.90;;;;;;10185393;29;20267;-89
2023/08/27 01:05:02;;;;;;;3.67;3.13;;;20.60;99.90;;;;;;10168392;29;20216;-89
2023/08/27 01:10:34;;;;;;;5.88;4.03;;;20.60;99.90;;;;;;10184751;29;20239;-90
2023/08/27 01:15:36;;;;;;;4.32;3.30;;;20.60;99.90;;;;;;10207656;29;20204;-89
2023/08/27 01:20:40;;;;;;;4.60;3.30;;;20.40;99.90;;;;;;10215259;29;20209;-90
2023/08/27 01:25:50;;;;;;;2.95;2.75;;;20.20;99.90;;;;;;10127419;29;20208;-89
2023/08/27 01:31:03;;;;;;;4.53;3.15;;;20.50;99.90;;;;;;10145128;29;20236;-90
2023/08/27 01:36:07;;;;;;;4.93;3.63;;;20.60;99.90;;;;;;10165235;29;20240;-88
2023/08/27 01:41:10;;;;;;;3.40;3.10;;;20.50;99.90;;;;;;10168408;29;20212;-89
2023/08/27 01:46:12;;;;;;;3.47;3.15;;;20.50;99.90;;;;;;10128734;29;20624;-88
2023/08/27 01:51:15;;;;;;;4.95;3.58;;;20.50;99.90;;;;;;10159572;29;20631;-88
2023/08/27 01:56:20;;;;;;;4.35;3.95;;;20.10;99.90;;;;;;10175083;29;20228;-88
2023/08/27 02:01:23;;;;;;;3.30;2.85;;;20.00;99.90;;;;;;10141827;29;20204;-88
2023/08/27 02:06:26;;;;;;;5.60;3.53;;;20.30;99.90;;;;;;10156953;29;20279;-88
2023/08/27 02:11:31;;;;;;;5.65;3.70;;;20.30;99.90;;;;;;10115935;29;20347;-88
2023/08/27 02:16:37;;;;;;;3.22;2.92;;;20.10;99.90;;;;;;10117606;29;20236;-88
2023/08/27 02:21:41;;;;;;;3.50;3.20;;;20.10;99.90;;;;;;10128489;29;20365;-89
2023/08/27 02:26:44;;;;;;;4.53;2.88;;;20.20;99.90;;;;;;10156418;29;20271;-88
2023/08/27 02:31:46;;;;;;;4.82;3.13;;;20.00;99.90;;;;;;10141770;29;20215;-88
2023/08/27 02:36:48;;;;;;;6.75;3.80;;;20.20;99.90;;;;;;10173557;29;20256;-88
2023/08/27 02:41:51;;;;;;;6.63;3.28;;;20.10;99.90;;;;;;10172521;29;20220;-88
2023/08/27 02:46:53;;;;;;;4.32;3.50;;;19.70;99.90;;;;;;10116646;29;20209;-88
2023/08/27 02:51:56;;;;;;;5.45;3.78;;;19.50;99.90;;;;;;10155100;29;20243;-88
2023/08/27 02:56:59;;;;;;;3.13;2.80;;;19.20;99.90;;;;;;10133947;29;20228;-88
2023/08/27 03:02:01;;;;;;;3.58;3.28;;;19.50;99.90;;;;;;10163928;29;20196;-88
2023/08/27 03:07:04;;;;;;;5.38;3.88;;;19.50;99.90;;;;;;10155069;29;20219;-88
2023/08/27 03:12:07;;;;;;;3.97;3.58;;;19.50;99.90;;;;;;10154253;29;20749;-88
2023/08/27 03:17:09;;;;;;;4.72;3.22;;;19.70;99.90;;;;;;10125305;29;20216;-88
2023/08/27 03:22:12;;;;;;;4.75;3.20;;;19.70;99.90;;;;;;10115780;29;20212;-88
2023/08/27 03:27:14;;;;;;;4.55;3.47;;;19.80;99.90;;;;;;10116356;29;20213;-88
2023/08/27 03:32:19;;;;;;;3.22;3.03;;;19.80;99.90;;;;;;10131717;29;20272;-88
2023/08/27 03:37:21;;;;;;;5.50;3.83;;;20.00;99.90;;;;;;10116259;29;20663;-88
2023/08/27 03:42:24;;;;;;;4.28;3.88;;;20.00;99.90;;;;;;10136199;29;20219;-88
2023/08/27 03:47:27;;;;;;;3.75;2.80;;;20.00;99.90;;;;;;10154106;29;20284;-88
2023/08/27 03:52:30;;;;;;;3.25;2.95;;;20.00;99.90;;;;;;10154181;29;20585;-89
2023/08/27 03:57:33;;;;;;;8.05;3.58;;;20.00;99.90;;;;;;10133838;29;20702;-88
2023/08/27 04:02:36;;;;;;;3.25;2.90;;;20.30;99.90;;;;;;10153421;29;20618;-88
2023/08/27 04:07:38;;;;;;;3.85;3.15;;;20.30;99.90;;;;;;10156074;29;20267;-88
2023/08/27 04:12:41;;;;;;;3.50;3.20;;;20.30;99.90;;;;;;10123258;29;20204;-88
2023/08/27 04:17:44;;;;;;;4.30;3.33;;;20.30;99.90;;;;;;10151584;29;20227;-88
2023/08/27 04:22:46;;;;;;;4.00;3.58;;;20.20;99.90;;;;;;10160172;29;20211;-88
2023/08/27 04:27:49;;;;;;;4.00;3.60;;;20.30;99.90;;;;;;10177529;29;20200;-88
2023/08/27 04:32:51;;;;;;;5.15;3.33;;;19.80;99.90;;;;;;10121075;29;20314;-88
2023/08/27 04:37:54;;;;;;;4.53;3.78;;;19.40;99.90;;;;;;10139154;29;20276;-88
2023/08/27 04:43:00;;;;;;;4.00;3.20;;;19.30;99.90;;;;;;10137810;29;20563;-88
2023/08/27 04:48:03;;;;;;;5.47;3.65;;;19.30;99.90;;;;;;10142875;29;20236;-90
2023/08/27 04:53:07;;;;;;;4.43;3.22;;;19.20;99.90;;;;;;10159336;29;20208;-90
2023/08/27 04:58:10;;;;;;;5.15;3.70;;;19.30;99.90;;;;;;10150617;29;20236;-90
2023/08/27 05:03:12;;;;;;;4.03;3.58;;;19.40;99.90;;;;;;10115660;29;20201;-90
2023/08/27 05:08:20;;;;;;;2.78;2.58;;;19.50;99.90;;;;;;10151825;29;20220;-90
2023/08/27 05:13:22;;;;;;;3.60;3.00;;;20.00;99.90;;;;;;10121091;29;20232;-90
2023/08/27 05:18:25;;;;;;;8.63;3.80;;;20.20;99.90;;;;;;10137095;29;20268;-90
2023/08/27 05:23:28;;;;;;;4.38;3.42;;;19.70;99.90;;;;;;10158354;29;20260;-90
2023/08/27 05:28:30;;;;;;;4.75;2.78;;;19.70;99.90;;;;;;10142539;29;20204;-87
2023/08/27 05:33:33;;;;;;;5.55;3.42;;;20.20;99.90;;;;;;10145122;29;20219;-88
2023/08/27 05:38:36;;;;;;;5.40;2.97;;;20.40;99.90;;;;;;10152265;29;20284;-89
2023/08/27 05:43:42;;;;;;;5.40;3.40;;;20.50;99.90;;;;;;10111711;29;20284;-88
2023/08/27 05:48:45;;;;;;;3.25;2.70;;;20.60;99.90;;;;;;10163343;29;20219;-88
2023/08/27 05:53:47;;;;;;;3.53;3.13;;;20.90;99.90;;;;;;10138173;29;20268;-88
2023/08/27 05:58:50;;;;;;;4.05;3.65;;;21.10;99.90;;;;;;10146032;29;20216;-88
2023/08/27 06:03:53;;;;;;;3.63;2.80;;;21.30;99.90;;;;;;10130491;29;20208;-88
2023/08/27 06:08:55;;;;;;;5.55;3.35;;;21.30;99.90;;;;;;10131792;29;20213;-88
2023/08/27 06:13:59;;;;;;;3.05;2.75;;;21.30;99.90;;;;;;10142794;29;20247;-88
2023/08/27 06:19:02;;;;;;;4.43;3.20;;;21.60;99.90;;;;;;10140030;29;20264;-88
2023/08/27 06:24:05;;;;;;;2.58;2.38;;;21.90;99.90;;;;;;10136260;29;20643;-88
2023/08/27 06:29:08;;;;;;;4.13;3.22;;;22.00;99.90;;;;;;10114713;29;20267;-88
2023/08/27 06:34:10;;;;;;;2.90;2.67;;;22.30;99.90;;;;;;10138062;29;20259;-88
2023/08/27 06:39:13;;;;;;;3.33;3.03;;;22.30;99.90;;;;;;10142310;29;20216;-88
2023/08/27 06:44:16;;;;;;;6.47;4.10;;;22.10;99.90;;;;;;10143632;29;20299;-87
2023/08/27 06:49:20;;;;;;;4.93;2.85;;;22.00;99.90;;;;;;10112889;29;20213;-88
2023/08/27 06:54:22;;;;;;;7.05;3.28;;;21.90;99.90;;;;;;10145007;29;20310;-88
2023/08/27 06:59:25;;;;;;;5.45;2.75;;;21.90;99.90;;;;;;10140901;29;20240;-87
2023/08/27 07:04:28;;;;;;;3.95;3.42;;;22.00;99.90;;;;;;10096522;29;20208;-87
2023/08/27 07:09:31;;;;;;;4.13;3.72;;;22.00;99.90;;;;;;10111983;29;20243;-87
2023/08/27 07:14:34;;;;;;;3.20;3.00;;;22.00;99.90;;;;;;10104274;29;20267;-87
2023/08/27 07:19:36;;;;;;;5.00;3.17;;;22.00;99.90;;;;;;10112047;29;20643;-87
2023/08/27 07:24:40;;;;;;;6.03;3.53;;;22.30;99.90;;;;;;10119802;29;20244;-87
2023/08/27 07:29:43;;;;;;;3.38;3.08;;;22.60;99.90;;;;;;10147130;29;20306;-87
2023/08/27 07:34:46;;;;;;;3.47;3.17;;;22.80;99.90;;;;;;10116833;29;20279;-88
2023/08/27 07:39:51;;;;;;;3.58;3.25;;;22.90;99.90;;;;;;10136892;29;20310;-87
2023/08/27 07:44:54;;;;;;;3.15;2.80;;;23.00;99.90;;;;;;10139772;29;20647;-87
2023/08/27 07:49:56;;;;;;;7.85;4.43;;;23.10;99.90;;;;;;10138221;29;20357;-87
2023/08/27 07:54:59;;;;;;;3.75;2.40;;;23.20;99.90;;;;;;10157905;29;20334;-86
2023/08/27 08:00:03;;;;;;;4.18;3.78;;;23.40;99.90;;;;;;10128239;29;20263;-87
2023/08/27 08:05:15;;;;;;;2.92;2.65;;;23.50;99.10;;;;;;10123262;29;20319;-87
2023/08/27 08:10:20;;;;;;;5.13;4.63;;;23.70;99.90;;;;;;10157462;29;20204;-87
2023/08/27 08:15:23;;;;;;;2.63;2.42;;;23.80;99.60;;;;;;10173678;29;20299;-87
2023/08/27 08:20:26;;;;;;;3.70;3.35;;;23.90;99.90;;;;;;10156770;29;20314;-87
2023/08/27 08:25:31;;;;;;;4.70;4.28;;;24.00;99.90;;;;;;10169683;29;20658;-87
2023/08/27 08:30:34;;;;;;;5.43;4.60;;;23.90;97.10;;;;;;10152395;29;20718;-86
2023/08/27 08:35:37;;;;;;;4.22;3.92;;;23.70;96.60;;;;;;10132223;29;20264;-87
2023/08/27 08:40:45;;;;;;;4.63;4.22;;;23.70;98.60;;;;;;10160702;29;20224;-87
2023/08/27 08:46:03;;;;;;;4.32;3.92;;;23.60;98.60;;;;;;10139421;29;20279;-87
2023/08/27 08:51:08;;;;;;;3.33;3.10;;;23.60;98.80;;;;;;10167335;29;20239;-87
2023/08/27 08:56:14;;;;;;;9.98;5.05;;;24.00;99.90;;;;;;10157736;29;20287;-87
2023/08/27 09:01:19;;;;;;;8.38;5.22;;;24.30;96.40;;;;;;10170904;29;20235;-87
2023/08/27 09:06:22;;;;;;;6.45;5.38;;;24.40;95.20;;;;;;10123570;29;20252;-87
2023/08/27 09:11:27;;;;;;;6.15;5.38;;;24.20;94.50;;;;;;10132423;29;20323;-87
2023/08/27 09:16:30;;;;;;;6.82;5.63;;;23.90;93.40;;;;;;10132636;29;20255;-86
2023/08/27 09:21:34;;;;;;;5.15;4.70;;;23.60;93.40;;;;;;10146486;29;20239;-87
2023/08/27 09:26:38;;;;;;;6.75;6.03;;;23.50;94.50;;;;;;10158518;29;20271;-87
2023/08/27 09:31:42;;;;;;;7.45;5.72;;;23.50;94.70;;;;;;10138442;29;20854;-89
2023/08/27 09:36:45;;;;;;;6.28;5.68;;;23.40;94.30;;;;;;10170128;29;20303;-90
2023/08/27 09:41:48;;;;;;;7.97;5.10;;;23.40;94.40;;;;;;10153917;29;20767;-90
2023/08/27 09:46:52;;;;;;;11.55;5.28;;;23.60;96.50;;;;;;10167110;29;20231;-88
2023/08/27 09:51:57;;;;;;;6.57;5.05;;;24.00;94.90;;;;;;10153628;29;20236;-87
2023/08/27 09:57:00;;;;;;;5.50;5.00;;;24.20;93.60;;;;;;10169040;29;20250;-88
2023/08/27 10:02:15;;;;;;;7.00;4.93;;;24.30;93.70;;;;;;10168529;29;20302;-87
2023/08/27 10:07:17;;;;;;;7.80;5.03;;;24.40;92.70;;;;;;10155947;29;20248;-87
2023/08/27 10:12:21;;;;;;;9.00;5.15;;;24.30;92.00;;;;;;10129432;29;20243;-87
2023/08/27 10:17:24;;;;;;;5.03;3.42;;;24.40;92.10;;;;;;10148021;29;20326;-87
2023/08/27 10:22:28;;;;;;;5.95;4.68;;;24.30;90.80;;;;;;10168312;29;20239;-87
2023/08/27 10:27:31;;;;;;;8.30;4.90;;;24.40;91.50;;;;;;10131779;29;20287;-90
2023/08/27 10:32:34;;;;;;;5.32;4.82;;;24.40;89.90;;;;;;10168129;29;20238;-89
2023/08/27 10:37:44;;;;;;;9.13;6.03;;;24.40;90.00;;;;;;10121465;29;20259;-89
2023/08/27 10:42:47;;;;;;;6.43;5.00;;;24.30;90.60;;;;;;10149474;29;20677;-89
2023/08/27 10:48:21;;;;;;;5.10;4.60;;;24.20;91.50;;;;;;10145409;29;20631;-89
2023/08/27 10:53:25;;;;;;;8.80;3.90;;;24.10;91.50;;;;;;10131740;29;20275;-90
2023/08/27 10:58:27;;;;;;;7.32;4.85;;;23.80;92.70;;;;;;10145675;29;20330;-89
2023/08/27 11:03:59;;;;;;;5.10;4.70;;;23.70;92.60;;;;;;10130020;29;20244;-89
2023/08/27 11:09:12;;;;;;;5.20;3.72;;;23.80;93.40;;;;;;10141180;29;20705;-89
2023/08/27 11:14:24;;;;;;;4.93;4.07;;;23.80;93.70;;;;;;10133993;29;20255;-89
2023/08/27 11:19:35;;;;;;;8.50;4.68;;;23.70;94.20;;;;;;10174525;29;20259;-89
2023/08/27 11:24:48;;;;;;;5.38;4.88;;;23.80;95.60;;;;;;10158725;29;20286;-89
2023/08/27 11:29:52;;;;;;;5.40;4.82;;;24.00;94.60;;;;;;10158001;29;20703;-89
2023/08/27 11:34:55;;;;;;;5.45;4.85;;;23.90;94.60;;;;;;10173347;29;20259;-89
2023/08/27 11:39:59;;;;;;;5.63;4.63;;;23.80;93.70;;;;;;10161565;29;20251;-92
2023/08/27 11:45:01;;;;;;;6.60;4.70;;;23.70;94.90;;;;;;10156014;29;20334;-93
2023/08/27 11:50:07;;;;;;;4.15;3.55;;;23.70;95.90;;;;;;10148980;29;20235;-90
2023/08/27 11:55:10;;;;;;;5.18;4.78;;;23.70;96.20;;;;;;10173688;29;20287;-91
2023/08/27 12:00:13;;;;;;;5.07;4.57;;;23.90;95.20;;;;;;10136490;29;20196;-91
2023/08/27 12:05:16;;;;;;;8.55;5.03;;;23.80;95.30;;;;;;10149447;29;20251;-91
2023/08/27 12:10:20;;;;;;;5.88;5.10;;;23.60;96.20;;;;;;10157547;29;20298;-92
2023/08/27 12:15:29;;;;;;;5.65;4.55;;;23.50;96.30;;;;;;10145943;29;20319;-89
2023/08/27 12:20:32;;;;;;;5.82;5.22;;;23.50;96.60;;;;;;10117522;29;20705;-88
2023/08/27 12:25:44;;;;;;;6.82;5.10;;;23.50;96.50;;;;;;10159411;29;20657;-93
2023/08/27 12:30:52;;;;;;;8.75;4.95;;;23.40;97.40;;;;;;10155237;29;20265;-92
2023/08/27 12:35:54;;;;;;;5.65;5.15;;;23.30;97.00;;;;;;10172409;29;20274;-93
2023/08/27 12:40:58;;;;;;;6.68;4.80;;;23.20;98.00;;;;;;10156022;29;20204;-92
2023/08/27 12:46:01;;;;;;;7.47;5.53;;;23.20;98.70;;;;;;10154432;29;20236;-92
2023/08/27 12:51:07;;;;;;;6.55;5.85;;;23.20;99.10;;;;;;10153449;29;20247;-93
2023/08/27 12:56:09;;;;;;;6.93;6.22;;;23.10;99.80;;;;;;10172471;29;20290;-93
2023/08/27 13:01:12;;;;;;;7.57;5.60;;;23.20;99.50;;;;;;10171095;29;20236;-92
2023/08/27 13:06:15;;;;;;;6.40;5.80;;;23.40;99.00;;;;;;10171461;29;20239;-93
2023/08/27 13:11:17;;;;;;;6.93;4.75;;;23.50;98.40;;;;;;10155043;29;20231;-92
2023/08/27 13:16:20;;;;;;;10.98;5.57;;;23.50;98.90;;;;;;10149503;29;20318;-92
2023/08/27 13:21:23;;;;;;;6.32;5.63;;;23.40;99.50;;;;;;10169416;29;20789;-92
2023/08/27 13:26:25;;;;;;;7.10;5.53;;;23.40;98.20;;;;;;10171204;29;20237;-92
2023/08/27 13:31:28;;;;;;;6.03;5.22;;;23.20;99.30;;;;;;10152498;29;20290;-89
2023/08/27 13:36:31;;;;;;;6.90;5.95;;;23.30;99.90;;;;;;10139954;29;20247;-96
2023/08/27 13:41:37;;;;;;;6.38;5.75;;;23.40;99.90;;;;;;10143999;23;20661;-87
2023/08/27 13:46:40;;;;;;;9.00;5.88;;;23.20;99.90;;;;;;10169279;29;20263;-87
2023/08/27 13:51:42;;;;;;;8.45;6.80;;;23.00;99.90;;;;;;10152170;29;20255;-88
2023/08/27 13:56:45;;;;;;;8.35;5.82;;;22.90;99.90;;;;;;10169394;29;20252;-87
2023/08/27 14:01:48;;;;;;;7.85;5.50;;;22.60;99.90;;;;;;10169517;29;20227;-87
2023/08/27 14:06:51;;;;;;;6.50;5.60;;;22.50;99.90;;;;;;10168691;29;20243;-87
2023/08/27 14:11:54;;;;;;;8.20;6.35;;;22.40;99.90;;;;;;10168434;29;20724;-86
2023/08/27 14:16:56;;;;;;;9.85;6.60;;;22.40;99.90;;;;;;10168228;29;20259;-87
2023/08/27 14:21:59;;;;;;;7.28;5.90;;;22.50;99.90;;;;;;10168590;29;20239;-87
2023/08/27 14:27:02;;;;;;;7.25;6.55;;;22.50;99.90;;;;;;10169247;29;20247;-89
2023/08/27 14:32:04;;;;;;;7.75;6.95;;;22.30;99.90;;;;;;10152461;29;20231;-88
2023/08/27 14:37:07;;;;;;;9.63;7.70;;;22.10;99.90;;;;;;10158120;29;20271;-86
2023/08/27 14:42:09;;;;;;;8.93;8.05;;;22.00;99.90;;;;;;10132012;29;21061;-86
2023/08/27 14:47:12;;;;;;;8.55;7.22;;;21.80;99.90;;;;;;10148583;29;20287;-88
2023/08/27 14:52:15;;;;;;;10.10;8.40;;;21.70;99.90;;;;;;10146980;29;20307;-86
2023/08/27 14:57:17;;;;;;;7.78;7.07;;;21.50;99.90;;;;;;10132915;29;20355;-86
2023/08/27 15:02:20;;;;;;;9.02;8.13;;;21.50;99.90;;;;;;10149755;29;20282;-86
2023/08/27 15:07:22;;;;;;;9.07;7.72;;;21.30;99.90;;;;;;10148160;29;20295;-86
2023/08/27 15:12:27;;;;;;;8.30;7.50;;;21.40;99.90;;;;;;10127912;29;20271;-86
2023/08/27 15:17:30;;;;;;;7.78;7.07;;;21.40;99.90;;;;;;10147519;29;20338;-86
2023/08/27 15:22:32;;;;;;;10.20;7.93;;;21.30;99.90;;;;;;10141454;29;20319;-87
2023/08/27 15:27:35;;;;;;;8.13;7.32;;;21.20;99.90;;;;;;10129581;29;20340;-87
2023/08/27 15:32:37;;;;;;;9.65;7.95;;;21.10;99.90;;;;;;10148693;29;20645;-86
2023/08/27 15:37:40;;;;;;;7.88;7.18;;;21.00;99.90;;;;;;10141640;29;20347;-87
2023/08/27 15:42:44;;;;;;;8.77;7.88;;;20.90;99.90;;;;;;10142231;29;20263;-87
2023/08/27 15:47:46;;;;;;;9.75;8.80;;;20.80;99.90;;;;;;10158779;29;20204;-88
2023/08/27 15:52:49;;;;;;;8.93;8.02;;;20.70;99.90;;;;;;10163205;29;20205;-86
2023/08/27 15:57:51;;;;;;;9.57;6.85;;;20.50;99.90;;;;;;10155033;29;20478;-86
2023/08/27 16:02:54;;;;;;;9.57;7.82;;;20.60;99.90;;;;;;10176675;29;20216;-86
2023/08/27 16:07:57;;;;;;;8.48;7.68;;;20.80;99.90;;;;;;10178401;29;20218;-85
2023/08/27 16:13:00;;;;;;;6.82;6.22;;;20.60;99.90;;;;;;10148661;29;20203;-85
2023/08/27 16:18:04;;;;;;;9.35;7.20;;;20.50;99.90;;;;;;10149794;29;20283;-86
2023/08/27 16:23:15;;;;;;;22.30;7.25;;;20.40;99.90;;;;;;10160958;29;20204;-85
2023/08/27 16:28:24;;;;;;;11.18;8.02;;;20.60;99.90;;;;;;10164909;29;20274;-86
2023/08/27 16:33:32;;;;;;;11.68;6.78;;;21.00;99.90;;;;;;10177290;29;20235;-85
2023/08/27 16:38:50;;;;;;;11.63;6.95;;;21.40;99.90;;;;;;10132736;29;20290;-85
2023/08/27 16:43:53;;;;;;;9.05;6.60;;;21.70;99.90;;;;;;10159875;29;20298;-84
2023/08/27 16:48:59;;;;;;;13.95;7.75;;;22.00;99.90;;;;;;10161499;29;20282;-85
2023/08/27 16:54:01;;;;;;;10.40;8.18;;;21.90;99.90;;;;;;10173445;29;20627;-84
2023/08/27 16:59:04;;;;;;;10.95;6.43;;;21.30;99.90;;;;;;10171002;29;20259;-87
2023/08/27 17:04:07;;;;;;;12.30;8.65;;;21.00;99.90;;;;;;9829618;29;10000406;-85
2023/08/27 17:09:10;;;;;;;8.55;7.63;;;20.50;99.90;;;;;;10164970;29;20295;-85
2023/08/27 17:14:12;;;;;;;8.70;7.80;;;20.40;99.90;;;;;;10149354;29;20239;-85
2023/08/27 17:19:15;;;;;;;9.60;7.75;;;20.30;99.90;;;;;;10166917;29;20251;-85
2023/08/27 17:24:17;;;;;;;9.57;7.38;;;20.20;99.90;;;;;;10164848;29;20251;-88
2023/08/27 17:29:20;;;;;;;8.57;7.38;;;20.20;99.90;;;;;;10148525;29;20259;-85
2023/08/27 17:34:22;;;;;;;9.75;7.20;;;19.90;99.90;;;;;;10165615;29;20633;-85
2023/08/27 17:39:25;;;;;;;7.30;6.60;;;19.80;99.90;;;;;;10165750;29;20702;-85
2023/08/27 17:44:27;;;;;;;6.32;5.25;;;19.70;99.90;;;;;;10164125;29;20274;-88
2023/08/27 17:49:30;;;;;;;8.15;7.40;;;19.70;99.90;;;;;;10149280;29;20231;-89
2023/08/27 17:54:33;;;;;;;7.88;6.65;;;19.70;99.90;;;;;;10148208;29;20251;-88
2023/08/27 17:59:36;;;;;;;8.48;7.00;;;19.60;99.90;;;;;;10163417;29;20335;-89
2023/08/27 18:04:38;;;;;;;9.38;7.13;;;19.60;99.90;;;;;;10164970;29;20244;-88
2023/08/27 18:09:41;;;;;;;7.38;6.68;;;19.50;99.90;;;;;;10165190;29;20314;-88
2023/08/27 18:14:43;;;;;;;14.73;7.15;;;19.40;99.90;;;;;;10144585;29;20235;-88
2023/08/27 18:19:49;;;;;;;9.10;6.95;;;19.20;99.90;;;;;;10162998;29;20302;-89
2023/08/27 18:24:52;;;;;;;7.00;6.30;;;19.00;99.90;;;;;;10163835;29;20240;-88
2023/08/27 18:29:54;;;;;;;7.28;6.53;;;19.00;99.90;;;;;;10118524;29;20709;-87
2023/08/27 18:34:57;;;;;;;9.50;6.32;;;18.90;99.90;;;;;;10144453;29;20286;-91
2023/08/27 18:39:59;;;;;;;11.20;5.88;;;18.80;99.90;;;;;;10149642;29;20270;-88
2023/08/27 18:45:03;;;;;;;5.95;5.15;;;18.80;99.90;;;;;;10166247;29;20589;-87
2023/08/27 18:50:05;;;;;;;7.82;5.05;;;18.70;99.90;;;;;;10170221;29;20290;-85
2023/08/27 18:55:08;;;;;;;6.75;5.90;;;18.80;99.90;;;;;;10150607;29;20302;-85
2023/08/27 19:00:12;;;;;;;6.93;6.00;;;18.30;99.90;;;;;;10164674;29;20287;-85
2023/08/27 19:05:15;;;;;;;7.80;6.13;;;18.20;99.90;;;;;;10157277;29;20322;-89
2023/08/27 19:10:18;;;;;;;5.88;5.28;;;18.00;99.90;;;;;;10164565;29;20295;-90
2023/08/27 19:15:21;;;;;;;5.82;4.80;;;17.80;99.90;;;;;;10157385;29;20235;-89
2023/08/27 19:20:24;;;;;;;5.72;5.22;;;17.80;99.90;;;;;;10151873;29;20250;-90
2023/08/27 19:25:26;;;;;;;5.35;4.80;;;17.90;99.90;;;;;;10163585;29;20302;-85
2023/08/27 19:30:29;;;;;;;4.70;4.10;;;17.80;99.90;;;;;;10148399;29;20248;-85
2023/08/27 19:35:32;;;;;;;5.70;4.65;;;17.90;99.90;;;;;;10144950;29;20259;-85
2023/08/27 19:40:34;;;;;;;5.22;4.75;;;17.90;99.90;;;;;;10153506;29;20267;-85
2023/08/27 19:45:37;;;;;;;6.40;5.47;;;17.80;99.90;;;;;;10156304;29;20224;-85
2023/08/27 19:50:40;;;;;;;6.85;5.45;;;18.10;99.90;;;;;;10167040;29;20734;-86
2023/08/27 19:55:47;;;;;;;7.88;6.63;;;17.80;99.90;;;;;;10174883;29;20243;-85
2023/08/27 20:00:49;;;;;;;7.13;6.43;;;17.60;99.90;;;;;;10172600;29;20745;-85
2023/08/27 20:05:55;;;;;;;6.32;5.72;;;17.40;99.90;;;;;;10162264;29;20235;-85
2023/08/27 20:11:02;;;;;;;8.18;6.30;;;17.50;99.90;;;;;;10168912;29;20722;-84
2023/08/27 20:16:05;;;;;;;6.70;6.10;;;17.50;99.90;;;;;;10172576;29;20294;-84
2023/08/27 20:21:08;;;;;;;9.38;6.55;;;17.40;99.90;;;;;;10172671;29;20306;-84
2023/08/27 20:26:10;;;;;;;7.20;6.50;;;17.40;99.90;;;;;;10156173;29;20231;-85
2023/08/27 20:31:13;;;;;;;6.45;5.93;;;17.20;99.90;;;;;;10147983;29;20657;-85
2023/08/27 20:36:17;;;;;;;8.75;7.57;;;17.20;99.90;;;;;;10167856;29;20281;-85
2023/08/27 20:41:23;;;;;;;9.95;7.68;;;17.10;99.90;;;;;;10170552;29;20291;-86
2023/08/27 20:46:26;;;;;;;8.00;7.20;;;17.10;99.90;;;;;;10169391;29;20228;-85
2023/08/27 20:51:29;;;;;;;7.80;7.00;;;17.10;99.90;;;;;;10165355;29;20247;-85
2023/08/27 20:56:31;;;;;;;9.68;6.72;;;17.10;99.90;;;;;;10171175;29;20291;-84
2023/08/27 21:01:34;;;;;;;8.75;7.07;;;17.00;99.90;;;;;;10152620;29;20288;-85
2023/08/27 21:06:37;;;;;;;7.90;7.10;;;17.00;99.90;;;;;;10164773;29;20295;-84
2023/08/27 21:11:39;;;;;;;8.15;6.72;;;17.00;99.90;;;;;;10160981;29;20228;-84
2023/08/27 21:16:42;;;;;;;7.63;6.93;;;17.00;99.90;;;;;;10146775;29;20295;-85
2023/08/27 21:21:45;;;;;;;6.60;5.88;;;17.00;99.90;;;;;;10167993;29;20263;-85
2023/08/27 21:26:47;;;;;;;10.07;6.47;;;17.00;99.90;;;;;;10170156;29;20632;-84
2023/08/27 21:31:53;;;;;;;7.43;6.63;;;17.00;99.90;;;;;;10167006;29;20235;-85
2023/08/27 21:36:56;;;;;;;7.22;6.53;;;17.00;99.90;;;;;;10168815;29;20303;-85
2023/08/27 21:41:59;;;;;;;6.82;6.20;;;17.00;99.90;;;;;;10154823;29;20323;-85
2023/08/27 21:47:01;;;;;;;9.48;6.57;;;17.00;99.90;;;;;;10167890;29;20259;-84
2023/08/27 21:52:04;;;;;;;8.15;6.13;;;17.00;99.90;;;;;;10168315;29;20916;-85
2023/08/27 21:57:07;;;;;;;8.57;6.70;;;17.10;99.90;;;;;;10164084;29;20235;-83
2023/08/27 22:02:09;;;;;;;8.15;7.05;;;17.20;99.90;;;;;;10155376;29;20282;-87
2023/08/27 22:07:12;;;;;;;7.53;6.75;;;17.20;99.90;;;;;;10151794;29;20291;-87
2023/08/27 22:12:15;;;;;;;7.25;6.65;;;17.30;99.90;;;;;;10167373;29;20675;-87
2023/08/27 22:17:18;;;;;;;7.80;7.10;;;17.40;99.90;;;;;;10162406;29;20747;-88
2023/08/27 22:22:21;;;;;;;11.50;7.05;;;17.50;99.90;;;;;;10145239;29;20315;-89
2023/08/27 22:27:27;;;;;;;10.63;9.52;;;17.50;99.90;;;;;;10132934;29;20701;-89
2023/08/27 22:32:30;;;;;;;11.77;9.57;;;17.80;99.90;;;;;;10151371;29;20227;-88
2023/08/27 22:37:32;;;;;;;10.60;9.55;;;17.60;99.90;;;;;;10155389;29;20232;-88
2023/08/27 22:42:35;;;;;;;9.00;7.53;;;17.60;99.90;;;;;;10148782;29;20259;-84
2023/08/27 22:47:38;;;;;;;12.48;10.43;;;17.60;99.90;;;;;;10149377;29;20216;-84
2023/08/27 22:52:41;;;;;;;14.50;12.27;;;17.40;99.90;;;;;;10162496;29;20256;-84
2023/08/27 22:57:43;;;;;;;19.00;12.95;;;17.30;99.90;;;;;;10163310;29;20234;-84
2023/08/27 23:02:46;;;;;;;18.88;12.98;;;17.40;99.90;;;;;;10151262;29;20680;-84
2023/08/27 23:07:49;;;;;;;15.55;12.48;;;17.30;99.90;;;;;;10167726;29;20318;-84
2023/08/27 23:12:51;;;;;;;13.95;12.13;;;17.40;99.90;;;;;;10166877;29;20283;-83
2023/08/27 23:17:54;;;;;;;14.98;10.77;;;17.50;99.90;;;;;;10149792;29;20282;-83
2023/08/27 23:22:56;;;;;;;12.68;11.43;;;17.50;99.90;;;;;;10167506;29;20219;-83
2023/08/27 23:28:00;;;;;;;14.82;11.20;;;17.50;99.90;;;;;;10166061;29;20231;-83
2023/08/27 23:33:04;;;;;;;14.15;11.05;;;17.50;99.90;;;;;;10150042;29;20254;-83
2023/08/27 23:38:08;;;;;;;13.00;11.60;;;17.40;99.90;;;;;;10165499;29;20319;-83
2023/08/27 23:43:10;;;;;;;11.63;9.50;;;17.30;99.90;;;;;;10166512;29;20287;-84
2023/08/27 23:48:15;;;;;;;14.68;10.50;;;17.40;99.90;;;;;;10166667;29;20251;-84
2023/08/27 23:53:18;;;;;;;11.77;10.48;;;17.30;99.90;;;;;;10149925;29;20243;-83
2023/08/27 23:58:20;;;;;;;9.50;7.30;;;17.20;99.90;;;;;;10149627;29;20259;-84
